createdAt,value
2022-10-06T00:01:04.099Z,102107.81
2022-10-06T00:03:31.263Z,102108.66
2022-10-06T00:06:02.214Z,102115.41
2022-10-06T00:08:30.701Z,102121.34
2022-10-06T00:10:58.107Z,102138.22
2022-10-06T00:13:25.051Z,102142.13
2022-10-06T00:15:51.730Z,102145.78
2022-10-06T00:18:18.571Z,102152.53
2022-10-06T00:20:45.540Z,102147.19
2022-10-06T00:23:12.119Z,102153.66
2022-10-06T00:25:38.687Z,102159.28
2022-10-06T00:28:05.340Z,102160.69
2022-10-06T00:30:32.541Z,102162.66
2022-10-06T00:33:01.097Z,102167.16
2022-10-06T00:35:34.523Z,102169.13
2022-10-06T00:38:01.458Z,102166.59
2022-10-06T00:40:28.406Z,102176.72
2022-10-06T00:43:00.756Z,102181.78
2022-10-06T00:45:37.478Z,102188.53
2022-10-06T00:48:09.545Z,102190.78
2022-10-06T00:50:38.115Z,102187.97
2022-10-06T00:53:05.225Z,102191.06
2022-10-06T00:55:31.985Z,102186.56
2022-10-06T00:57:59.595Z,102186.56
2022-10-06T01:00:26.431Z,102189.66
2022-10-06T01:02:57.354Z,102190.78
2022-10-06T01:05:28.943Z,102195.56
2022-10-06T01:07:55.798Z,102194.72
2022-10-06T01:10:22.387Z,102211.84
2022-10-06T01:12:49.002Z,102210.16
2022-10-06T01:15:16.322Z,102225.31
2022-10-06T01:17:46.570Z,102221.66
2022-10-06T01:20:15.494Z,102228.41
2022-10-06T01:22:44.545Z,102233.19
2022-10-06T01:25:12.952Z,102240.78
2022-10-06T01:27:40.832Z,102244.72
2022-10-06T01:30:08.782Z,102249.50
2022-10-06T01:32:37.139Z,102252.56
2022-10-06T01:35:04.258Z,102253.41
2022-10-06T01:37:30.839Z,102256.22
2022-10-06T01:39:57.473Z,102258.19
2022-10-06T01:42:24.160Z,102255.69
2022-10-06T01:44:50.827Z,102248.09
2022-10-06T01:47:17.553Z,102250.91
2022-10-06T01:49:44.163Z,102254.25
2022-10-06T01:52:10.865Z,102249.22
2022-10-06T01:54:37.603Z,102250.06
2022-10-06T01:57:05.584Z,102256.78
2022-10-06T01:59:32.894Z,102252.03
2022-10-06T02:01:59.976Z,102263.53
2022-10-06T02:04:26.998Z,102262.69
2022-10-06T02:06:55.656Z,102264.66
2022-10-06T02:09:23.424Z,102262.13
2022-10-06T02:11:50.480Z,102258.75
2022-10-06T02:14:18.242Z,102266.34
2022-10-06T02:16:45.666Z,102270.25
2022-10-06T02:19:12.465Z,102272.25
2022-10-06T02:21:40.200Z,102272.53
2022-10-06T02:24:06.800Z,102268.59
2022-10-06T02:26:33.464Z,102265.22
2022-10-06T02:29:00.155Z,102269.97
2022-10-06T02:31:26.858Z,102279.53
2022-10-06T02:33:53.527Z,102282.34
2022-10-06T02:36:20.430Z,102280.66
2022-10-06T02:38:47.059Z,102282.63
2022-10-06T02:41:13.678Z,102284.59
2022-10-06T02:43:40.237Z,102295.84
2022-10-06T02:46:09.325Z,102291.31
2022-10-06T02:48:35.926Z,102298.91
2022-10-06T02:51:04.758Z,102295.81
2022-10-06T02:53:31.340Z,102303.13
2022-10-06T02:56:04.792Z,102303.13
2022-10-06T02:58:32.117Z,102297.50
2022-10-06T03:01:02.703Z,102299.75
2022-10-06T03:03:29.572Z,102307.31
2022-10-06T03:06:00.197Z,102299.75
2022-10-06T03:08:27.057Z,102304.81
2022-10-06T03:10:59.199Z,102310.44
2022-10-06T03:13:25.877Z,102318.00
2022-10-06T03:15:52.459Z,102325.59
2022-10-06T03:18:19.513Z,102328.41
2022-10-06T03:20:46.083Z,102331.22
2022-10-06T03:23:13.685Z,102332.31
2022-10-06T03:25:40.407Z,102342.72
2022-10-06T03:28:07.033Z,102343.00
2022-10-06T03:30:34.217Z,102341.31
2022-10-06T03:33:02.011Z,102348.88
2022-10-06T03:35:28.607Z,102352.53
2022-10-06T03:37:55.281Z,102349.72
2022-10-06T03:40:21.826Z,102362.09
2022-10-06T03:42:48.403Z,102360.66
2022-10-06T03:45:15.095Z,102365.75
2022-10-06T03:47:41.666Z,102374.44
2022-10-06T03:50:08.500Z,102372.78
2022-10-06T03:52:36.076Z,102378.38
2022-10-06T03:55:02.664Z,102389.63
2022-10-06T03:57:29.223Z,102397.19
2022-10-06T03:59:59.918Z,102389.88
2022-10-06T04:02:26.686Z,102387.34
2022-10-06T04:04:53.328Z,102393.81
2022-10-06T04:07:19.872Z,102408.09
2022-10-06T04:09:46.430Z,102409.81
2022-10-06T04:12:23.334Z,102412.06
2022-10-06T04:14:49.956Z,102406.72
2022-10-06T04:17:16.747Z,102419.91
2022-10-06T04:19:43.400Z,102419.91
2022-10-06T04:22:09.974Z,102428.31
2022-10-06T04:24:36.613Z,102421.00
2022-10-06T04:27:21.633Z,102434.22
2022-10-06T04:29:48.363Z,102426.91
2022-10-06T04:32:20.998Z,102426.91
2022-10-06T04:34:47.573Z,102421.56
2022-10-06T04:37:14.142Z,102439.53
2022-10-06T04:39:41.329Z,102437.31
2022-10-06T04:42:07.963Z,102439.53
2022-10-06T04:44:34.536Z,102448.25
2022-10-06T04:47:01.575Z,102443.75
2022-10-06T04:49:28.286Z,102448.50
2022-10-06T04:51:54.966Z,102453.00
2022-10-06T04:54:21.561Z,102445.69
2022-10-06T04:56:48.200Z,102453.28
2022-10-06T04:59:14.990Z,102462.56
2022-10-06T05:01:41.602Z,102461.44
2022-10-06T05:04:08.291Z,102474.94
2022-10-06T05:06:36.649Z,102466.50
2022-10-06T05:09:07.541Z,102475.22
2022-10-06T05:11:34.449Z,102470.75
2022-10-06T05:14:01.129Z,102473.03
2022-10-06T05:16:28.928Z,102479.78
2022-10-06T05:18:56.037Z,102484.59
2022-10-06T05:21:23.836Z,102491.34
2022-10-06T05:23:50.682Z,102488.84
2022-10-06T05:26:18.996Z,102492.78
2022-10-06T05:28:45.745Z,102499.28
2022-10-06T05:31:13.850Z,102505.19
2022-10-06T05:33:40.711Z,102509.16
2022-10-06T05:36:13.521Z,102501.00
2022-10-06T05:38:40.139Z,102506.69
2022-10-06T05:41:11.177Z,102509.81
2022-10-06T05:43:38.393Z,102507.28
2022-10-06T05:46:06.451Z,102513.19
2022-10-06T05:48:33.256Z,102510.69
2022-10-06T05:51:01.207Z,102507.34
2022-10-06T05:53:28.550Z,102512.41
2022-10-06T05:56:05.502Z,102517.47
2022-10-06T05:58:32.777Z,102511.31
2022-10-06T06:01:13.509Z,102517.47
2022-10-06T06:03:41.181Z,102519.72
2022-10-06T06:06:21.297Z,102527.91
2022-10-06T06:08:58.385Z,102533.81
2022-10-06T06:11:31.681Z,102539.44
2022-10-06T06:13:59.436Z,102525.94
2022-10-06T06:16:27.070Z,102538.91
2022-10-06T06:18:53.773Z,102540.56
2022-10-06T06:21:20.415Z,102533.81
2022-10-06T06:23:47.963Z,102533.00
2022-10-06T06:26:18.927Z,102533.00
2022-10-06T06:28:48.811Z,102539.19
2022-10-06T06:31:20.315Z,102545.13
2022-10-06T06:33:47.787Z,102547.63
2022-10-06T06:36:15.271Z,102549.03
2022-10-06T06:38:42.251Z,102546.78
2022-10-06T06:41:15.995Z,102548.75
2022-10-06T06:43:42.708Z,102553.50
2022-10-06T06:46:12.629Z,102566.72
2022-10-06T06:48:39.341Z,102562.25
2022-10-06T06:51:06.022Z,102568.69
2022-10-06T06:53:32.710Z,102571.47
2022-10-06T06:55:59.429Z,102559.09
2022-10-06T06:58:26.870Z,102564.41
2022-10-06T07:00:53.692Z,102567.78
2022-10-06T07:03:45.244Z,102568.00
2022-10-06T07:06:10.143Z,102586.56
2022-10-06T07:08:38.080Z,102578.09
2022-10-06T07:11:21.180Z,102579.22
2022-10-06T07:13:51.024Z,102587.09
2022-10-06T07:16:37.263Z,102593.81
2022-10-06T07:19:25.016Z,102597.72
2022-10-06T07:22:31.121Z,102600.81
2022-10-06T07:25:07.726Z,102601.66
2022-10-06T07:27:43.543Z,102613.22
2022-10-06T07:30:19.545Z,102611.78
2022-10-06T07:32:52.329Z,102616.22
2022-10-06T07:35:22.535Z,102611.78
2022-10-06T07:37:50.008Z,102615.97
2022-10-06T07:40:17.179Z,102615.97
2022-10-06T07:42:52.169Z,102613.72
2022-10-06T07:45:52.473Z,102625.81
2022-10-06T07:48:20.828Z,102624.97
2022-10-06T07:50:50.081Z,102624.66
2022-10-06T07:53:19.065Z,102632.84
2022-10-06T07:55:46.889Z,102630.88
2022-10-06T07:58:17.728Z,102632.28
2022-10-06T08:00:45.422Z,102632.91
2022-10-06T08:03:14.653Z,102629.84
2022-10-06T08:05:41.410Z,102628.69
2022-10-06T08:08:08.089Z,102631.25
2022-10-06T08:10:34.650Z,102632.69
2022-10-06T08:13:05.351Z,102636.03
2022-10-06T08:15:32.053Z,102632.97
2022-10-06T08:18:02.129Z,102638.31
2022-10-06T08:20:28.851Z,102635.22
2022-10-06T08:22:55.469Z,102636.94
2022-10-06T08:25:22.056Z,102636.66
2022-10-06T08:27:53.280Z,102639.19
2022-10-06T08:30:20.246Z,102640.03
2022-10-06T08:32:47.912Z,102638.91
2022-10-06T08:35:14.658Z,102643.44
2022-10-06T08:37:41.723Z,102646.81
2022-10-06T08:40:12.811Z,102640.31
2022-10-06T08:42:48.670Z,102630.78
2022-10-06T08:45:20.815Z,102632.75
2022-10-06T08:47:50.439Z,102645.44
2022-10-06T08:50:18.238Z,102644.56
2022-10-06T08:52:51.329Z,102645.69
2022-10-06T08:55:33.167Z,102646.28
2022-10-06T08:58:02.629Z,102648.25
2022-10-06T09:00:33.288Z,102643.72
2022-10-06T09:03:00.666Z,102653.00
2022-10-06T09:05:29.649Z,102656.66
2022-10-06T09:08:05.491Z,102649.34
2022-10-06T09:10:35.116Z,102659.75
2022-10-06T09:13:06.764Z,102660.34
2022-10-06T09:15:40.573Z,102658.91
2022-10-06T09:18:29.133Z,102656.94
2022-10-06T09:21:02.854Z,102660.59
2022-10-06T09:23:54.258Z,102668.19
2022-10-06T09:26:31.833Z,102657.19
2022-10-06T09:28:58.857Z,102664.78
2022-10-06T09:31:29.639Z,102672.41
2022-10-06T09:33:59.540Z,102671.25
2022-10-06T09:36:26.255Z,102672.41
2022-10-06T09:38:54.235Z,102675.22
2022-10-06T09:41:29.833Z,102671.25
2022-10-06T09:43:57.684Z,102681.94
2022-10-06T09:46:35.089Z,102681.94
2022-10-06T09:49:15.603Z,102671.53
2022-10-06T09:51:57.930Z,102666.78
2022-10-06T09:54:24.789Z,102672.41
2022-10-06T09:56:52.326Z,102665.38
2022-10-06T09:59:21.433Z,102666.47
2022-10-06T10:01:51.601Z,102662.81
2022-10-06T10:04:22.193Z,102666.47
2022-10-06T10:06:48.987Z,102669.88
2022-10-06T10:09:22.621Z,102671.59
2022-10-06T10:12:28.413Z,102674.09
2022-10-06T10:14:57.050Z,102672.13
2022-10-06T10:17:34.729Z,102674.94
2022-10-06T10:20:02.896Z,102680.84
2022-10-06T10:22:39.966Z,102665.09
2022-10-06T10:25:18.631Z,102671.59
2022-10-06T10:27:54.702Z,102661.72
2022-10-06T10:30:21.367Z,102666.78
2022-10-06T10:33:08.190Z,102665.38
2022-10-06T10:35:41.960Z,102663.97
2022-10-06T10:38:22.310Z,102668.78
2022-10-06T10:40:51.758Z,102660.59
2022-10-06T10:43:22.396Z,102667.91
2022-10-06T10:46:11.971Z,102656.66
2022-10-06T10:48:44.711Z,102662.00
2022-10-06T10:51:14.437Z,102658.06
2022-10-06T10:53:50.882Z,102657.22
2022-10-06T10:56:25.005Z,102669.06
2022-10-06T10:58:54.050Z,102663.69
2022-10-06T11:01:37.827Z,102661.47
2022-10-06T11:04:04.517Z,102652.47
2022-10-06T11:06:37.128Z,102654.41
2022-10-06T11:09:08.293Z,102656.13
2022-10-06T11:11:35.010Z,102654.72
2022-10-06T11:14:04.015Z,102649.63
2022-10-06T11:16:49.381Z,102660.03
2022-10-06T11:19:23.801Z,102662.84
2022-10-06T11:21:58.647Z,102665.41
2022-10-06T11:24:48.636Z,102660.88
2022-10-06T11:27:27.699Z,102656.38
2022-10-06T11:30:06.768Z,102659.19
2022-10-06T11:32:36.131Z,102650.75
2022-10-06T11:35:03.007Z,102646.28
2022-10-06T11:37:32.718Z,102648.25
2022-10-06T11:40:16.979Z,102652.72
2022-10-06T11:42:44.054Z,102646.28
2022-10-06T11:45:12.297Z,102647.09
2022-10-06T11:47:50.420Z,102642.31
2022-10-06T11:50:32.335Z,102640.66
2022-10-06T11:52:58.963Z,102640.66
2022-10-06T11:55:26.616Z,102635.59
2022-10-06T11:58:12.562Z,102627.16
2022-10-06T12:00:51.554Z,102631.66
2022-10-06T12:03:38.477Z,102622.38
2022-10-06T12:06:05.090Z,102637.84
2022-10-06T12:08:36.076Z,102631.91
2022-10-06T12:11:02.673Z,102624.59
2022-10-06T12:19:29.096Z,102621.78
2022-10-06T12:22:01.230Z,102622.59
2022-10-06T12:24:28.072Z,102611.66
2022-10-06T12:27:13.314Z,102612.50
2022-10-06T12:29:49.134Z,102609.69
2022-10-06T12:32:40.573Z,102618.13
2022-10-06T12:35:10.151Z,102608.25
2022-10-06T12:37:42.764Z,102593.34
2022-10-06T12:40:28.100Z,102594.75
2022-10-06T12:43:09.794Z,102598.41
2022-10-06T12:45:41.088Z,102595.88
2022-10-06T12:48:23.417Z,102598.41
2022-10-06T12:50:53.198Z,102600.38
2022-10-06T12:53:28.440Z,102586.31
2022-10-06T12:56:00.746Z,102593.91
2022-10-06T12:58:32.610Z,102591.94
2022-10-06T13:01:07.664Z,102587.44
2022-10-06T13:03:34.920Z,102580.41
2022-10-06T13:06:03.566Z,102579.81
2022-10-06T13:08:31.513Z,102579.25
2022-10-06T13:11:16.847Z,102571.66
2022-10-06T13:13:51.265Z,102577.28
2022-10-06T13:16:21.802Z,102581.22
2022-10-06T13:18:48.737Z,102567.44
2022-10-06T13:21:16.676Z,102560.69
2022-10-06T13:23:45.658Z,102563.50
2022-10-06T13:26:24.568Z,102564.34
2022-10-06T13:28:53.608Z,102561.56
2022-10-06T13:31:31.599Z,102557.88
2022-10-06T13:34:05.120Z,102553.97
2022-10-06T13:36:37.331Z,102551.41
2022-10-06T13:39:12.728Z,102559.00
2022-10-06T13:41:47.011Z,102559.59
2022-10-06T13:44:17.638Z,102555.94
2022-10-06T13:46:50.334Z,102572.78
2022-10-06T13:49:22.702Z,102562.41
2022-10-06T13:51:54.369Z,102569.97
2022-10-06T13:54:25.854Z,102544.09
2022-10-06T13:56:53.387Z,102577.28
2022-10-06T13:59:31.269Z,102553.63
2022-10-06T14:01:59.620Z,102572.75
2022-10-06T14:04:26.572Z,102557.84
2022-10-06T14:06:55.914Z,102562.38
2022-10-06T14:09:27.147Z,102548.56
2022-10-06T14:12:01.278Z,102545.50
2022-10-06T14:14:28.871Z,102550.84
2022-10-06T14:16:55.597Z,102543.25
2022-10-06T14:19:42.452Z,102541.28
2022-10-06T14:22:32.982Z,102539.59
2022-10-06T14:24:59.633Z,102545.22
2022-10-06T14:27:26.343Z,102546.06
2022-10-06T14:29:53.065Z,102533.13
2022-10-06T14:32:29.217Z,102530.59
2022-10-06T14:34:55.871Z,102513.44
2022-10-06T14:37:22.683Z,102514.28
2022-10-06T14:39:50.640Z,102516.84
2022-10-06T14:42:32.744Z,102506.72
2022-10-06T14:44:59.626Z,102527.22
2022-10-06T14:47:26.521Z,102515.97
2022-10-06T14:49:53.216Z,102512.06
2022-10-06T14:52:26.616Z,102508.13
2022-10-06T14:54:53.297Z,102506.44
2022-10-06T14:57:21.153Z,102506.44
2022-10-06T14:59:47.900Z,102501.66
2022-10-06T15:02:26.545Z,102507.56
2022-10-06T15:04:53.252Z,102499.97
2022-10-06T15:07:38.284Z,102503.03
2022-10-06T15:10:06.091Z,102499.38
2022-10-06T15:12:34.092Z,102497.72
2022-10-06T15:15:00.928Z,102494.06
2022-10-06T15:17:28.464Z,102493.47
2022-10-06T15:19:55.047Z,102483.31
2022-10-06T15:22:27.248Z,102484.47
2022-10-06T15:24:53.842Z,102469.81
2022-10-06T15:27:38.866Z,102471.78
2022-10-06T15:30:05.648Z,102473.75
2022-10-06T15:32:32.841Z,102460.84
2022-10-06T15:35:00.418Z,102477.97
2022-10-06T15:37:27.012Z,102461.38
2022-10-06T15:39:53.664Z,102457.72
2022-10-06T15:42:31.657Z,102470.09
2022-10-06T15:44:58.282Z,102470.34
2022-10-06T15:47:25.159Z,102463.03
2022-10-06T15:49:51.746Z,102461.34
2022-10-06T15:52:26.264Z,102451.25
2022-10-06T15:54:52.996Z,102456.28
2022-10-06T15:57:21.209Z,102455.16
2022-10-06T15:59:48.336Z,102452.63
2022-10-06T16:02:35.425Z,102457.41
2022-10-06T16:05:02.320Z,102456.84
2022-10-06T16:07:31.586Z,102454.28
2022-10-06T16:09:58.431Z,102466.66
2022-10-06T16:12:28.616Z,102456.25
2022-10-06T16:14:55.384Z,102458.50
2022-10-06T16:17:21.943Z,102457.66
2022-10-06T16:19:48.735Z,102453.16
2022-10-06T16:22:29.709Z,102452.31
2022-10-06T16:24:56.291Z,102450.63
2022-10-06T16:27:22.871Z,102463.53
2022-10-06T16:29:49.510Z,102456.22
2022-10-06T16:32:23.496Z,102454.53
2022-10-06T16:34:50.893Z,102450.91
2022-10-06T16:37:17.524Z,102451.16
2022-10-06T16:39:44.109Z,102453.13
2022-10-06T16:42:10.799Z,102444.72
2022-10-06T16:44:37.521Z,102434.59
2022-10-06T16:47:04.312Z,102436.53
2022-10-06T16:49:31.758Z,102444.41
2022-10-06T16:51:58.381Z,102437.69
2022-10-06T16:54:25.798Z,102433.19
2022-10-06T16:56:54.383Z,102432.06
2022-10-06T16:59:22.599Z,102428.66
2022-10-06T17:01:49.898Z,102434.03
2022-10-06T17:04:18.057Z,102433.19
2022-10-06T17:06:46.562Z,102432.88
2022-10-06T17:09:14.838Z,102439.09
2022-10-06T17:11:43.059Z,102446.69
2022-10-06T17:14:09.685Z,102450.09
2022-10-06T17:16:37.288Z,102446.72
2022-10-06T17:19:04.204Z,102448.69
2022-10-06T17:21:49.663Z,102451.81
2022-10-06T17:24:18.527Z,102450.97
2022-10-06T17:26:47.165Z,102454.06
2022-10-06T17:29:17.824Z,102451.59
2022-10-06T17:31:45.320Z,102449.94
2022-10-06T17:34:18.225Z,102454.16
2022-10-06T17:36:48.655Z,102445.44
2022-10-06T17:39:16.305Z,102446.84
2022-10-06T17:41:43.427Z,102452.19
2022-10-06T17:44:13.574Z,102453.59
2022-10-06T17:46:41.230Z,102449.41
2022-10-06T17:49:08.822Z,102456.44
2022-10-06T17:51:36.384Z,102457.28
2022-10-06T17:54:04.182Z,102463.47
2022-10-06T17:56:37.558Z,102457.00
2022-10-06T17:59:06.279Z,102456.72
2022-10-06T18:01:38.185Z,102461.22
2022-10-06T18:04:05.779Z,102468.53
2022-10-06T18:06:37.670Z,102455.06
2022-10-06T18:09:09.860Z,102453.91
2022-10-06T18:11:42.178Z,102450.84
2022-10-06T18:14:25.659Z,102462.09
2022-10-06T18:16:57.038Z,102461.53
2022-10-06T18:19:30.767Z,102442.69
2022-10-06T18:21:59.111Z,102450.84
2022-10-06T18:24:27.489Z,102451.69
2022-10-06T18:27:02.233Z,102455.91
2022-10-06T18:29:36.198Z,102454.78
2022-10-06T18:37:37.739Z,102456.50
2022-10-06T18:40:07.125Z,102458.19
2022-10-06T18:42:37.632Z,102459.84
2022-10-06T18:45:27.284Z,102451.41
2022-10-06T18:48:13.280Z,102462.41
2022-10-06T18:50:49.703Z,102448.91
2022-10-06T18:53:17.586Z,102457.88
2022-10-06T18:55:45.104Z,102462.66
2022-10-06T18:58:20.686Z,102458.19
2022-10-06T19:00:48.864Z,102461.81
2022-10-06T19:03:22.989Z,102456.19
2022-10-06T19:05:54.888Z,102459.00
2022-10-06T19:08:22.062Z,102455.38
2022-10-06T19:11:13.064Z,102452.81
2022-10-06T19:13:54.606Z,102451.13
2022-10-06T19:16:25.142Z,102452.25
2022-10-06T19:18:56.683Z,102460.69
2022-10-06T19:21:23.424Z,102449.75
2022-10-06T19:23:56.338Z,102456.47
2022-10-06T19:26:27.266Z,102459.56
2022-10-06T19:28:55.263Z,102448.31
2022-10-06T19:31:34.435Z,102445.78
2022-10-06T19:34:08.562Z,102451.41
2022-10-06T19:36:38.406Z,102444.09
2022-10-06T19:39:09.355Z,102448.88
2022-10-06T19:42:08.715Z,102453.66
2022-10-06T19:44:43.191Z,102450.25
2022-10-06T19:47:12.620Z,102443.81
2022-10-06T19:49:39.284Z,102448.59
2022-10-06T19:52:13.450Z,102448.88
2022-10-06T19:54:41.172Z,102444.34
2022-10-06T19:57:11.727Z,102449.13
2022-10-06T19:59:38.790Z,102458.72
2022-10-06T20:02:13.708Z,102457.84
2022-10-06T20:04:40.776Z,102456.16
2022-10-06T20:07:09.164Z,102454.47
2022-10-06T20:09:37.708Z,102455.31
2022-10-06T20:12:20.990Z,102453.91
2022-10-06T20:14:51.113Z,102453.06
2022-10-06T20:17:17.743Z,102452.22
2022-10-06T20:19:44.434Z,102452.50
2022-10-06T20:22:12.093Z,102450.78
2022-10-06T20:24:38.727Z,102452.75
2022-10-06T20:27:08.585Z,102449.41
2022-10-06T20:29:39.712Z,102431.69
2022-10-06T20:32:25.069Z,102437.56
2022-10-06T20:34:51.691Z,102441.53
2022-10-06T20:37:18.481Z,102433.34
2022-10-06T20:40:03.459Z,102438.97
2022-10-06T20:42:31.555Z,102442.06
2022-10-06T20:44:58.215Z,102445.97
2022-10-06T20:47:24.832Z,102435.03
2022-10-06T20:49:55.375Z,102437.00
2022-10-06T20:52:34.074Z,102441.78
2022-10-06T20:55:00.731Z,102440.91
2022-10-06T20:57:33.484Z,102440.34
2022-10-06T21:00:00.660Z,102441.44
2022-10-06T21:02:27.443Z,102429.63
2022-10-06T21:04:54.117Z,102439.50
2022-10-06T21:07:21.707Z,102432.72
2022-10-06T21:09:51.996Z,102429.91
2022-10-06T21:12:20.456Z,102424.28
2022-10-06T21:14:48.644Z,102427.09
2022-10-06T21:17:15.225Z,102427.09
2022-10-06T21:19:41.852Z,102425.44
2022-10-06T21:22:08.531Z,102426.28
2022-10-06T21:24:35.172Z,102424.59
2022-10-06T21:27:01.802Z,102422.63
2022-10-06T21:29:33.761Z,102415.31
2022-10-06T21:32:00.603Z,102413.34
2022-10-06T21:34:27.831Z,102414.47
2022-10-06T21:36:54.430Z,102406.88
2022-10-06T21:39:24.833Z,102406.03
2022-10-06T21:41:52.435Z,102403.22
2022-10-06T21:44:25.572Z,102400.41
2022-10-06T21:46:53.231Z,102397.59
2022-10-06T21:49:28.010Z,102393.94
2022-10-06T21:51:56.460Z,102396.75
2022-10-06T21:54:23.474Z,102388.31
2022-10-06T21:56:50.222Z,102377.34
2022-10-06T21:59:16.945Z,102377.34
2022-10-06T22:01:44.595Z,102370.06
2022-10-06T22:04:12.965Z,102372.88
2022-10-06T22:06:39.722Z,102373.72
2022-10-06T22:09:07.571Z,102375.69
2022-10-06T22:11:35.645Z,102371.19
2022-10-06T22:14:03.226Z,102379.59
2022-10-06T22:16:32.179Z,102375.09
2022-10-06T22:18:58.936Z,102377.06
2022-10-06T22:21:27.435Z,102371.75
2022-10-06T22:23:55.473Z,102367.22
2022-10-06T22:26:24.939Z,102363.31
2022-10-06T22:28:52.518Z,102365.28
2022-10-06T22:31:24.728Z,102357.09
2022-10-06T22:33:54.397Z,102348.94
2022-10-06T22:36:21.752Z,102344.16
2022-10-06T22:38:52.777Z,102350.91
2022-10-06T22:41:19.980Z,102339.66
2022-10-06T22:43:52.652Z,102333.22
2022-10-06T22:46:23.210Z,102335.19
2022-10-06T22:48:54.963Z,102338.28
2022-10-06T22:51:24.744Z,102330.97
2022-10-06T22:53:56.551Z,102329.25
2022-10-06T22:56:25.388Z,102323.63
2022-10-06T22:58:52.354Z,102314.41
2022-10-06T23:01:19.732Z,102321.97
2022-10-06T23:03:47.105Z,102310.75
2022-10-06T23:06:14.609Z,102314.94
2022-10-06T23:08:41.369Z,102308.19
2022-10-06T23:11:11.319Z,102314.09
2022-10-06T23:13:46.072Z,102307.63
2022-10-06T23:16:13.894Z,102305.66
2022-10-06T23:18:43.376Z,102297.53
2022-10-06T23:21:11.761Z,102290.22
2022-10-06T23:23:38.377Z,102298.38
2022-10-06T23:26:13.369Z,102289.38
2022-10-06T23:28:43.434Z,102285.72
2022-10-06T23:31:14.086Z,102292.19
2022-10-06T23:33:44.649Z,102282.06
2022-10-06T23:36:12.104Z,102281.19
2022-10-06T23:38:43.527Z,102279.25
2022-10-06T23:41:10.312Z,102275.59
2022-10-06T23:43:46.308Z,102271.13
2022-10-06T23:46:13.158Z,102272.22
2022-10-06T23:48:39.901Z,102262.94
2022-10-06T23:51:07.796Z,102270.53
2022-10-06T23:53:34.730Z,102265.75
2022-10-06T23:56:01.393Z,102262.09
2022-10-06T23:58:28.490Z,102266.03
